createdAt,value
2023-06-14T00:01:35.760Z,94460.94
2023-06-14T00:04:02.873Z,94470.59
2023-06-14T00:06:30.114Z,94470.25
2023-06-14T00:08:56.923Z,94468.03
2023-06-14T00:11:23.687Z,94463.13
2023-06-14T00:13:50.393Z,94471.59
2023-06-14T00:16:17.123Z,94470.78
2023-06-14T00:18:43.807Z,94476.34
2023-06-14T00:21:10.515Z,94470.63
2023-06-14T00:23:37.384Z,94477.53
2023-06-14T00:26:04.264Z,94471.16
2023-06-14T00:28:30.952Z,94469.00
2023-06-14T00:30:57.837Z,94470.06
2023-06-14T00:33:24.525Z,94472.81
2023-06-14T00:35:51.278Z,94468.34
2023-06-14T00:38:18.004Z,94470.06
2023-06-14T00:40:44.683Z,94469.50
2023-06-14T00:43:11.349Z,94472.19
2023-06-14T00:45:40.559Z,94481.72
2023-06-14T00:48:09.324Z,94474.41
2023-06-14T00:50:36.881Z,94472.47
2023-06-14T00:53:03.748Z,94480.53
2023-06-14T00:55:31.156Z,94476.53
2023-06-14T00:57:58.203Z,94469.75
2023-06-14T01:00:24.966Z,94480.47
2023-06-14T01:02:51.892Z,94473.53
2023-06-14T01:05:20.060Z,94487.03
2023-06-14T01:08:29.232Z,94480.59
2023-06-14T01:11:08.263Z,94483.34
2023-06-14T01:13:41.733Z,94485.78
2023-06-14T01:16:09.523Z,94486.75
2023-06-14T01:18:37.270Z,94482.22
2023-06-14T01:21:04.252Z,94481.75
2023-06-14T01:23:31.027Z,94485.78
2023-06-14T01:25:57.765Z,94480.44
2023-06-14T01:28:25.929Z,94486.75
2023-06-14T01:30:55.797Z,94480.72
2023-06-14T01:33:24.969Z,94486.06
2023-06-14T01:35:56.818Z,94488.91
2023-06-14T01:38:26.719Z,94486.34
2023-06-14T01:40:58.101Z,94484.59
2023-06-14T01:43:26.703Z,94489.44
2023-06-14T01:45:55.611Z,94489.28
2023-06-14T01:48:22.972Z,94494.25
2023-06-14T01:50:50.994Z,94495.34
2023-06-14T01:53:19.133Z,94501.19
2023-06-14T01:55:48.363Z,94494.38
2023-06-14T01:58:16.857Z,94486.00
2023-06-14T02:00:43.559Z,94494.31
2023-06-14T02:03:10.436Z,94496.00
2023-06-14T02:05:37.170Z,94493.91
2023-06-14T02:08:04.027Z,94492.31
2023-06-14T02:10:30.804Z,94496.09
2023-06-14T02:12:57.574Z,94493.31
2023-06-14T02:15:24.287Z,94491.31
2023-06-14T02:17:51.084Z,94495.69
2023-06-14T02:20:18.487Z,94497.41
2023-06-14T02:22:46.160Z,94495.88
2023-06-14T02:25:12.855Z,94503.22
2023-06-14T02:27:39.918Z,94503.63
2023-06-14T02:30:07.176Z,94504.34
2023-06-14T02:32:34.180Z,94498.75
2023-06-14T02:35:00.951Z,94507.09
2023-06-14T02:37:27.653Z,94508.53
2023-06-14T02:39:54.412Z,94501.81
2023-06-14T02:42:21.085Z,94498.66
2023-06-14T02:44:47.785Z,94503.28
2023-06-14T02:47:14.492Z,94495.69
2023-06-14T02:49:41.199Z,94507.94
2023-06-14T02:52:07.887Z,94504.31
2023-06-14T02:54:34.565Z,94498.88
2023-06-14T02:57:01.404Z,94514.09
2023-06-14T02:59:28.273Z,94508.22
2023-06-14T03:01:54.998Z,94507.09
2023-06-14T03:04:21.685Z,94504.56
2023-06-14T03:06:48.404Z,94518.16
2023-06-14T03:09:15.162Z,94518.84
2023-06-14T03:11:41.862Z,94517.25
2023-06-14T03:14:08.581Z,94518.00
2023-06-14T03:16:35.510Z,94521.94
2023-06-14T03:19:04.562Z,94517.00
2023-06-14T03:21:31.353Z,94521.25
2023-06-14T03:23:58.105Z,94520.22
2023-06-14T03:26:24.817Z,94522.94
2023-06-14T03:28:51.556Z,94526.94
2023-06-14T03:31:18.426Z,94522.72
2023-06-14T03:33:45.142Z,94519.84
2023-06-14T03:36:11.854Z,94521.16
2023-06-14T03:38:38.835Z,94524.06
2023-06-14T03:41:05.544Z,94534.88
2023-06-14T03:43:32.234Z,94534.72
2023-06-14T03:45:58.977Z,94533.41
2023-06-14T03:48:25.835Z,94534.19
2023-06-14T03:50:52.673Z,94539.25
2023-06-14T03:53:19.379Z,94534.78
2023-06-14T03:58:16.632Z,94544.56
2023-06-14T04:00:43.330Z,94538.28
2023-06-14T04:03:10.188Z,94548.44
2023-06-14T04:05:37.031Z,94553.81
2023-06-14T04:08:03.905Z,94560.00
2023-06-14T04:10:30.592Z,94558.06
2023-06-14T04:12:57.306Z,94559.13
2023-06-14T04:15:24.343Z,94556.97
2023-06-14T04:17:51.420Z,94564.09
2023-06-14T04:20:18.232Z,94565.38
2023-06-14T04:22:45.014Z,94571.16
2023-06-14T04:25:11.734Z,94572.72
2023-06-14T04:27:38.718Z,94571.75
2023-06-14T04:30:06.095Z,94574.53
2023-06-14T04:32:32.861Z,94577.34
2023-06-14T04:34:59.663Z,94582.84
2023-06-14T04:37:26.537Z,94574.91
2023-06-14T04:39:53.295Z,94575.16
2023-06-14T04:42:20.017Z,94578.22
2023-06-14T04:44:46.721Z,94586.28
2023-06-14T04:47:14.552Z,94593.03
2023-06-14T04:49:41.332Z,94583.63
2023-06-14T04:52:08.247Z,94585.84
2023-06-14T04:54:35.079Z,94590.88
2023-06-14T04:57:01.830Z,94588.38
2023-06-14T04:59:31.313Z,94588.81
2023-06-14T05:01:58.151Z,94590.28
2023-06-14T05:04:25.995Z,94590.81
2023-06-14T05:06:52.669Z,94592.41
2023-06-14T05:09:19.426Z,94586.63
2023-06-14T05:11:46.149Z,94596.19
2023-06-14T05:14:13.311Z,94600.69
2023-06-14T05:16:41.149Z,94600.91
2023-06-14T05:19:08.356Z,94599.97
2023-06-14T05:21:40.522Z,94597.63
2023-06-14T05:24:09.182Z,94600.25
2023-06-14T05:26:36.027Z,94598.19
2023-06-14T05:29:05.041Z,94592.19
2023-06-14T05:31:31.848Z,94596.25
2023-06-14T05:33:58.621Z,94596.47
2023-06-14T05:36:25.449Z,94598.59
2023-06-14T05:38:52.489Z,94601.28
2023-06-14T05:41:19.163Z,94602.91
2023-06-14T05:43:45.851Z,94609.91
2023-06-14T05:46:12.540Z,94611.84
2023-06-14T05:48:39.234Z,94612.50
2023-06-14T05:51:05.923Z,94604.00
2023-06-14T05:53:32.650Z,94611.63
2023-06-14T05:55:59.368Z,94613.75
2023-06-14T05:58:26.186Z,94613.66
2023-06-14T06:00:53.133Z,94622.38
2023-06-14T06:03:20.144Z,94610.81
2023-06-14T06:05:47.026Z,94621.13
2023-06-14T06:08:13.818Z,94620.06
2023-06-14T06:10:40.564Z,94620.28
2023-06-14T06:13:07.805Z,94621.88
2023-06-14T06:15:36.582Z,94625.34
2023-06-14T06:18:03.455Z,94631.03
2023-06-14T06:20:31.114Z,94626.72
2023-06-14T06:22:58.674Z,94626.84
2023-06-14T06:25:26.150Z,94631.91
2023-06-14T06:27:56.385Z,94625.16
2023-06-14T06:30:23.494Z,94622.50
2023-06-14T06:32:50.246Z,94624.25
2023-06-14T06:35:17.218Z,94623.84
2023-06-14T06:37:44.623Z,94623.50
2023-06-14T06:40:11.566Z,94623.44
2023-06-14T06:42:38.336Z,94622.03
2023-06-14T06:45:06.845Z,94624.56
2023-06-14T06:47:33.572Z,94620.66
2023-06-14T06:50:00.283Z,94618.31
2023-06-14T06:52:26.990Z,94625.66
2023-06-14T06:54:53.739Z,94615.22
2023-06-14T06:57:20.504Z,94616.38
2023-06-14T06:59:47.211Z,94614.31
2023-06-14T07:02:14.097Z,94623.25
2023-06-14T07:04:40.826Z,94620.38
2023-06-14T07:07:07.653Z,94617.94
2023-06-14T07:09:34.350Z,94616.13
2023-06-14T07:12:01.057Z,94618.69
2023-06-14T07:14:27.970Z,94616.09
2023-06-14T07:16:55.068Z,94617.41
2023-06-14T07:19:22.146Z,94628.53
2023-06-14T07:21:49.519Z,94624.16
2023-06-14T07:24:16.606Z,94623.72
2023-06-14T07:26:43.613Z,94635.63
2023-06-14T07:29:10.514Z,94633.38
2023-06-14T07:31:37.232Z,94630.84
2023-06-14T07:34:04.169Z,94632.72
2023-06-14T07:36:33.932Z,94635.91
2023-06-14T07:39:00.729Z,94637.75
2023-06-14T07:41:27.453Z,94646.59
2023-06-14T07:43:54.162Z,94649.25
2023-06-14T07:46:20.999Z,94647.09
2023-06-14T07:48:47.816Z,94654.00
2023-06-14T07:51:17.191Z,94650.03
2023-06-14T07:53:43.893Z,94646.81
2023-06-14T07:56:10.603Z,94642.53
2023-06-14T07:58:37.327Z,94634.97
2023-06-14T08:01:04.042Z,94639.50
2023-06-14T08:03:30.963Z,94642.25
2023-06-14T08:05:57.931Z,94638.09
2023-06-14T08:08:24.783Z,94628.19
2023-06-14T08:10:51.541Z,94629.78
2023-06-14T08:13:18.445Z,94637.88
2023-06-14T08:15:45.299Z,94643.19
2023-06-14T08:18:12.143Z,94626.97
2023-06-14T08:20:38.868Z,94633.94
2023-06-14T08:23:05.669Z,94636.44
2023-06-14T08:25:32.462Z,94643.69
2023-06-14T08:28:00.312Z,94639.16
2023-06-14T08:30:27.232Z,94636.44
2023-06-14T08:33:06.040Z,94646.53
2023-06-14T08:35:40.626Z,94642.31
2023-06-14T08:38:07.364Z,94648.28
2023-06-14T08:40:38.551Z,94645.56
2023-06-14T08:43:05.401Z,94650.09
2023-06-14T08:45:32.773Z,94658.19
2023-06-14T08:48:01.439Z,94654.00
2023-06-14T08:50:29.564Z,94657.06
2023-06-14T08:53:02.123Z,94656.28
2023-06-14T08:55:31.381Z,94659.94
2023-06-14T08:58:00.044Z,94654.47
2023-06-14T09:00:28.890Z,94654.31
2023-06-14T09:02:55.960Z,94654.00
2023-06-14T09:05:24.727Z,94662.41
2023-06-14T09:07:51.759Z,94670.28
2023-06-14T09:10:18.604Z,94661.19
2023-06-14T09:12:45.389Z,94654.22
2023-06-14T09:15:12.226Z,94657.03
2023-06-14T09:17:40.060Z,94662.16
2023-06-14T09:20:08.814Z,94658.88
2023-06-14T09:22:35.866Z,94658.88
2023-06-14T09:25:03.438Z,94661.03
2023-06-14T09:27:30.743Z,94658.19
2023-06-14T09:29:57.809Z,94658.53
2023-06-14T09:32:26.379Z,94663.94
2023-06-14T09:34:53.170Z,94659.88
2023-06-14T09:37:30.700Z,94652.53
2023-06-14T09:39:58.777Z,94667.00
2023-06-14T09:42:27.103Z,94650.94
2023-06-14T09:45:59.373Z,94656.09
2023-06-14T09:48:26.476Z,94668.75
2023-06-14T09:50:59.194Z,94662.06
2023-06-14T09:53:28.936Z,94661.75
2023-06-14T09:55:58.399Z,94659.34
2023-06-14T09:58:28.794Z,94670.41
2023-06-14T10:00:55.772Z,94655.94
2023-06-14T10:03:31.972Z,94658.09
2023-06-14T10:06:09.151Z,94670.34
2023-06-14T10:08:38.906Z,94670.00
2023-06-14T10:11:05.626Z,94671.59
2023-06-14T10:13:34.192Z,94663.19
2023-06-14T10:16:19.839Z,94665.84
2023-06-14T10:19:14.774Z,94666.72
2023-06-14T10:21:50.148Z,94661.38
2023-06-14T10:24:24.908Z,94663.00
2023-06-14T10:26:56.754Z,94661.84
2023-06-14T10:29:25.243Z,94658.31
2023-06-14T10:31:57.854Z,94661.72
2023-06-14T10:34:28.598Z,94665.72
2023-06-14T10:37:12.842Z,94661.09
2023-06-14T10:39:42.503Z,94658.25
2023-06-14T10:42:09.589Z,94656.63
2023-06-14T10:44:55.426Z,94660.75
2023-06-14T10:47:29.589Z,94657.88
2023-06-14T10:50:04.193Z,94650.69
2023-06-14T10:52:35.220Z,94659.66
2023-06-14T10:55:12.622Z,94654.66
2023-06-14T10:57:51.638Z,94656.00
2023-06-14T11:00:36.545Z,94655.47
2023-06-14T11:03:31.674Z,94661.31
2023-06-14T11:06:01.839Z,94660.88
2023-06-14T11:09:14.130Z,94658.38
2023-06-14T11:11:43.735Z,94654.06
2023-06-14T11:14:11.421Z,94665.22
2023-06-14T11:16:38.198Z,94658.59
2023-06-14T11:19:05.160Z,94659.94
2023-06-14T11:21:34.411Z,94654.41
2023-06-14T11:24:01.421Z,94649.44
2023-06-14T11:26:32.774Z,94650.88
2023-06-14T11:29:01.009Z,94654.03
2023-06-14T11:31:29.479Z,94657.38
2023-06-14T11:33:58.017Z,94658.16
2023-06-14T11:36:28.511Z,94645.41
2023-06-14T11:39:03.544Z,94644.81
2023-06-14T11:41:42.344Z,94651.66
2023-06-14T11:44:10.274Z,94640.94
2023-06-14T11:46:37.176Z,94644.78
2023-06-14T11:49:05.266Z,94642.25
2023-06-14T11:51:34.762Z,94633.13
2023-06-14T11:54:06.580Z,94646.75
2023-06-14T11:56:33.917Z,94647.03
2023-06-14T11:59:01.249Z,94639.47
2023-06-14T12:01:28.308Z,94633.59
2023-06-14T12:03:56.063Z,94636.91
2023-06-14T12:06:30.918Z,94627.53
2023-06-14T12:08:58.071Z,94633.31
2023-06-14T12:11:29.115Z,94633.75
2023-06-14T12:13:57.939Z,94631.19
2023-06-14T12:16:32.293Z,94624.38
2023-06-14T12:19:01.948Z,94622.25
2023-06-14T12:21:28.673Z,94621.41
2023-06-14T12:23:55.870Z,94627.03
2023-06-14T12:26:22.640Z,94621.47
2023-06-14T12:28:49.483Z,94624.75
2023-06-14T12:31:17.124Z,94622.06
2023-06-14T12:33:44.608Z,94624.66
2023-06-14T12:36:12.071Z,94626.53
2023-06-14T12:38:38.858Z,94626.31
2023-06-14T12:41:05.815Z,94624.44
2023-06-14T12:43:32.678Z,94623.59
2023-06-14T12:45:59.500Z,94619.06
2023-06-14T12:48:26.703Z,94620.31
2023-06-14T12:50:53.630Z,94613.78
2023-06-14T12:53:20.349Z,94613.91
2023-06-14T12:55:47.122Z,94622.28
2023-06-14T12:58:13.820Z,94625.66
2023-06-14T13:00:41.138Z,94625.72
2023-06-14T13:03:07.965Z,94624.31
2023-06-14T13:05:34.788Z,94620.91
2023-06-14T13:08:01.875Z,94623.97
2023-06-14T13:10:30.546Z,94618.00
2023-06-14T13:12:57.287Z,94618.44
2023-06-14T13:15:26.384Z,94622.75
2023-06-14T13:17:53.263Z,94622.91
2023-06-14T13:20:21.062Z,94620.66
2023-06-14T13:22:48.170Z,94624.34
2023-06-14T13:25:14.885Z,94626.63
2023-06-14T13:27:41.591Z,94626.06
2023-06-14T13:30:08.689Z,94618.25
2023-06-14T13:32:35.453Z,94619.69
2023-06-14T13:35:02.246Z,94614.25
2023-06-14T13:37:29.132Z,94617.31
2023-06-14T13:39:55.908Z,94619.72
2023-06-14T13:42:22.599Z,94627.25
2023-06-14T13:44:49.338Z,94638.19
2023-06-14T13:47:16.004Z,94626.03
2023-06-14T13:49:42.716Z,94630.00
2023-06-14T13:52:09.497Z,94621.41
2023-06-14T13:54:36.217Z,94614.13
2023-06-14T13:57:02.925Z,94619.72
2023-06-14T13:59:29.613Z,94611.38
2023-06-14T14:01:56.296Z,94625.03
2023-06-14T14:04:23.102Z,94625.25
2023-06-14T14:06:49.835Z,94612.34
2023-06-14T14:09:16.561Z,94616.38
2023-06-14T14:11:43.309Z,94620.72
2023-06-14T14:14:09.997Z,94626.81
2023-06-14T14:16:36.877Z,94621.31
2023-06-14T14:19:03.725Z,94621.97
2023-06-14T14:21:31.234Z,94614.31
2023-06-14T14:23:57.976Z,94626.56
2023-06-14T14:26:24.870Z,94622.41
2023-06-14T14:28:52.338Z,94622.06
2023-06-14T14:31:19.876Z,94617.31
2023-06-14T14:33:46.690Z,94619.19
2023-06-14T14:36:13.412Z,94608.41
2023-06-14T14:38:40.083Z,94609.09
2023-06-14T14:41:06.798Z,94611.78
2023-06-14T14:43:33.511Z,94612.22
2023-06-14T14:46:00.227Z,94613.25
2023-06-14T14:48:26.924Z,94611.44
2023-06-14T14:50:53.665Z,94615.84
2023-06-14T14:53:20.321Z,94606.69
2023-06-14T14:55:47.049Z,94610.38
2023-06-14T14:58:14.748Z,94615.41
2023-06-14T15:00:41.411Z,94612.28
2023-06-14T15:03:08.179Z,94607.66
2023-06-14T15:05:34.941Z,94610.38
2023-06-14T15:08:01.638Z,94610.03
2023-06-14T15:10:28.316Z,94598.44
2023-06-14T15:12:55.025Z,94599.34
2023-06-14T15:15:23.351Z,94607.06
2023-06-14T15:17:50.089Z,94599.06
2023-06-14T15:20:17.050Z,94591.69
2023-06-14T15:22:43.946Z,94599.88
2023-06-14T15:25:10.769Z,94597.47
2023-06-14T15:27:37.516Z,94603.31
2023-06-14T15:30:04.547Z,94598.88
2023-06-14T15:32:31.268Z,94590.25
2023-06-14T15:34:57.950Z,94591.59
2023-06-14T15:37:24.662Z,94595.91
2023-06-14T15:39:51.356Z,94594.75
2023-06-14T15:42:18.058Z,94593.78
2023-06-14T15:44:44.752Z,94596.81
2023-06-14T15:47:11.434Z,94599.16
2023-06-14T15:49:38.108Z,94603.31
2023-06-14T15:52:05.183Z,94596.34
2023-06-14T15:54:34.070Z,94614.72
2023-06-14T15:57:00.743Z,94587.66
2023-06-14T15:59:27.474Z,94594.38
2023-06-14T16:01:54.212Z,94588.25
2023-06-14T16:04:21.294Z,94593.34
2023-06-14T16:06:47.988Z,94589.88
2023-06-14T16:09:14.648Z,94608.59
2023-06-14T16:11:42.078Z,94593.88
2023-06-14T16:14:08.887Z,94595.50
2023-06-14T16:16:35.720Z,94588.84
2023-06-14T16:19:02.444Z,94590.44
2023-06-14T16:21:29.152Z,94589.53
2023-06-14T16:23:55.897Z,94585.69
2023-06-14T16:26:22.603Z,94590.38
2023-06-14T16:28:49.270Z,94597.47
2023-06-14T16:31:15.959Z,94596.78
2023-06-14T16:33:42.730Z,94596.88
2023-06-14T16:36:13.233Z,94598.69
2023-06-14T16:38:40.205Z,94592.97
2023-06-14T16:41:06.873Z,94602.06
2023-06-14T16:43:33.561Z,94602.38
2023-06-14T16:46:02.816Z,94602.06
2023-06-14T16:48:29.601Z,94604.72
2023-06-14T16:50:56.459Z,94602.13
2023-06-14T16:53:23.142Z,94616.84
2023-06-14T16:55:49.896Z,94615.13
2023-06-14T16:58:16.775Z,94613.72
2023-06-14T17:00:43.479Z,94623.53
2023-06-14T17:03:11.378Z,94623.44
2023-06-14T17:05:54.230Z,94631.22
2023-06-14T17:08:20.973Z,94639.72
2023-06-14T17:10:47.675Z,94648.63
2023-06-14T17:13:17.459Z,94645.50
2023-06-14T17:15:44.458Z,94629.22
2023-06-14T17:18:11.312Z,94644.69
2023-06-14T17:20:38.059Z,94651.81
2023-06-14T17:23:04.922Z,94646.00
2023-06-14T17:25:31.822Z,94653.03
2023-06-14T17:27:58.574Z,94659.34
2023-06-14T17:30:25.471Z,94658.81
2023-06-14T17:32:54.506Z,94666.94
2023-06-14T17:35:21.329Z,94671.59
2023-06-14T17:37:50.304Z,94663.84
2023-06-14T17:40:17.604Z,94670.13
2023-06-14T17:42:44.661Z,94674.75
2023-06-14T17:45:11.669Z,94672.69
2023-06-14T17:47:40.886Z,94677.59
2023-06-14T17:50:08.564Z,94678.63
2023-06-14T17:52:35.392Z,94681.53
2023-06-14T17:55:03.627Z,94681.72
2023-06-14T17:57:30.334Z,94687.72
2023-06-14T17:59:57.354Z,94691.47
2023-06-14T18:02:24.112Z,94692.91
2023-06-14T18:04:50.880Z,94689.41
2023-06-14T18:07:17.607Z,94701.94
2023-06-14T18:09:44.352Z,94693.38
2023-06-14T18:12:11.073Z,94696.56
2023-06-14T18:14:38.043Z,94704.88
2023-06-14T18:17:05.069Z,94710.16
2023-06-14T18:19:31.830Z,94707.47
2023-06-14T18:21:59.978Z,94710.44
2023-06-14T18:24:26.706Z,94710.81
2023-06-14T18:26:53.481Z,94716.03
2023-06-14T18:29:20.196Z,94717.63
2023-06-14T18:31:47.076Z,94712.06
2023-06-14T18:34:13.884Z,94722.56
2023-06-14T18:36:40.666Z,94721.28
2023-06-14T18:39:07.469Z,94727.78
2023-06-14T18:41:35.501Z,94722.53
2023-06-14T18:44:02.307Z,94739.34
2023-06-14T18:46:29.056Z,94731.91
2023-06-14T18:48:55.793Z,94738.75
2023-06-14T18:51:22.504Z,94729.34
2023-06-14T18:53:49.265Z,94735.88
2023-06-14T18:56:15.992Z,94737.13
2023-06-14T18:58:42.723Z,94743.50
2023-06-14T19:01:09.452Z,94745.22
2023-06-14T19:03:36.397Z,94748.88
2023-06-14T19:06:03.211Z,94746.94
2023-06-14T19:08:29.951Z,94755.78
2023-06-14T19:10:56.654Z,94756.47
2023-06-14T19:13:24.057Z,94762.06
2023-06-14T19:15:50.757Z,94763.38
2023-06-14T19:18:17.558Z,94758.41
2023-06-14T19:20:44.329Z,94768.72
2023-06-14T19:23:11.162Z,94776.06
2023-06-14T19:25:37.836Z,94779.09
2023-06-14T19:28:04.707Z,94772.38
2023-06-14T19:30:31.451Z,94774.91
2023-06-14T19:32:58.255Z,94778.88
2023-06-14T19:35:25.030Z,94790.25
2023-06-14T19:37:51.960Z,94785.81
2023-06-14T19:40:20.217Z,94790.97
2023-06-14T19:42:47.344Z,94793.38
2023-06-14T19:45:14.221Z,94796.50
2023-06-14T19:47:43.800Z,94800.28
2023-06-14T19:50:10.795Z,94797.91
2023-06-14T19:52:37.503Z,94808.56
2023-06-14T19:55:04.600Z,94809.16
2023-06-14T19:57:31.320Z,94813.44
2023-06-14T19:59:57.981Z,94816.53
2023-06-14T20:02:24.697Z,94821.03
2023-06-14T20:04:51.478Z,94814.06
2023-06-14T20:07:18.149Z,94806.47
2023-06-14T20:09:44.855Z,94820.13
2023-06-14T20:12:11.641Z,94821.44
2023-06-14T20:14:39.049Z,94824.81
2023-06-14T20:17:06.057Z,94823.41
2023-06-14T20:19:32.740Z,94833.38
2023-06-14T20:21:59.511Z,94826.72
2023-06-14T20:24:29.335Z,94828.50
2023-06-14T20:26:56.203Z,94828.69
2023-06-14T20:29:22.883Z,94835.28
2023-06-14T20:31:49.709Z,94832.97
2023-06-14T20:34:16.449Z,94842.75
2023-06-14T20:36:43.165Z,94838.38
2023-06-14T20:39:09.942Z,94843.13
2023-06-14T20:41:37.329Z,94836.38
2023-06-14T20:44:04.084Z,94842.16
2023-06-14T20:46:30.781Z,94842.84
2023-06-14T20:48:57.532Z,94848.72
2023-06-14T20:51:24.498Z,94869.19
2023-06-14T20:53:51.348Z,94850.28
2023-06-14T20:56:18.120Z,94840.72
2023-06-14T20:58:44.833Z,94852.47
2023-06-14T21:01:11.568Z,94847.72
2023-06-14T21:03:38.373Z,94855.78
2023-06-14T21:06:05.095Z,94846.81
2023-06-14T21:08:31.812Z,94859.31
2023-06-14T21:10:58.498Z,94840.41
2023-06-14T21:13:25.198Z,94849.56
2023-06-14T21:15:51.915Z,94846.56
2023-06-14T21:18:18.848Z,94849.94
2023-06-14T21:20:45.729Z,94852.91
2023-06-14T21:23:12.420Z,94855.88
2023-06-14T21:25:39.278Z,94846.44
2023-06-14T21:28:06.089Z,94852.41
2023-06-14T21:30:34.137Z,94852.34
2023-06-14T21:33:01.337Z,94850.84
2023-06-14T21:35:28.072Z,94856.25
2023-06-14T21:37:54.842Z,94857.00
2023-06-14T21:40:21.548Z,94863.09
2023-06-14T21:42:48.316Z,94865.19
2023-06-14T21:45:15.025Z,94863.16
2023-06-14T21:47:41.736Z,94862.69
2023-06-14T21:50:09.050Z,94865.09
2023-06-14T21:52:35.756Z,94866.34
2023-06-14T21:55:02.453Z,94861.03
2023-06-14T21:57:29.251Z,94871.81
2023-06-14T21:59:56.041Z,94888.34
2023-06-14T22:02:23.167Z,94890.69
2023-06-14T22:04:50.081Z,94881.09
2023-06-14T22:07:17.960Z,94894.28
2023-06-14T22:09:44.687Z,94879.84
2023-06-14T22:12:11.439Z,94880.16
2023-06-14T22:14:38.113Z,94882.03
2023-06-14T22:17:05.090Z,94880.50
2023-06-14T22:19:31.809Z,94879.81
2023-06-14T22:21:58.508Z,94874.28
2023-06-14T22:24:25.317Z,94882.06
2023-06-14T22:26:51.982Z,94881.84
2023-06-14T22:29:18.727Z,94887.19
2023-06-14T22:31:45.457Z,94880.59
2023-06-14T22:34:12.303Z,94882.50
2023-06-14T22:36:39.005Z,94885.88
2023-06-14T22:39:06.100Z,94892.13
2023-06-14T22:41:32.943Z,94891.91
2023-06-14T22:44:00.005Z,94890.09
2023-06-14T22:46:26.773Z,94891.28
2023-06-14T22:48:53.508Z,94890.97
2023-06-14T22:51:22.202Z,94893.88
2023-06-14T22:53:49.418Z,94890.09
2023-06-14T22:56:18.363Z,94889.50
2023-06-14T22:58:45.905Z,94894.06
2023-06-14T23:01:16.088Z,94889.88
2023-06-14T23:03:43.798Z,94896.75
2023-06-14T23:06:12.115Z,94898.41
2023-06-14T23:08:38.794Z,94899.28
2023-06-14T23:11:05.521Z,94900.97
2023-06-14T23:13:34.521Z,94899.25
2023-06-14T23:16:01.207Z,94898.13
2023-06-14T23:18:27.921Z,94907.88
2023-06-14T23:20:54.597Z,94899.03
2023-06-14T23:23:21.322Z,94903.88
2023-06-14T23:25:48.744Z,94894.31
2023-06-14T23:28:15.437Z,94898.63
2023-06-14T23:30:42.132Z,94899.28
2023-06-14T23:33:08.977Z,94904.41
2023-06-14T23:35:35.683Z,94900.91
2023-06-14T23:38:02.376Z,94905.09
2023-06-14T23:40:29.039Z,94904.25
2023-06-14T23:42:56.458Z,94900.75
2023-06-14T23:45:24.405Z,94900.31
2023-06-14T23:47:51.390Z,94905.06
2023-06-14T23:50:18.223Z,94908.81
2023-06-14T23:52:44.934Z,94910.75
2023-06-14T23:55:11.930Z,94904.56
2023-06-14T23:57:38.579Z,94911.19
